createdAt,value
2023-03-31T00:02:58.780Z,0
2023-03-31T00:08:00.904Z,0
2023-03-31T00:13:05.119Z,0
2023-03-31T00:18:09.204Z,0
2023-03-31T00:23:13.386Z,0
2023-03-31T00:28:17.529Z,0
2023-03-31T00:33:21.702Z,0
2023-03-31T00:38:25.862Z,0
2023-03-31T00:48:34.157Z,0
2023-03-31T00:53:38.331Z,0
2023-03-31T00:58:42.556Z,0
2023-03-31T01:03:46.833Z,0
2023-03-31T01:08:50.867Z,0
2023-03-31T01:13:55.003Z,0
2023-03-31T01:18:57.260Z,0
2023-03-31T01:24:01.413Z,0
2023-03-31T01:29:05.598Z,0
2023-03-31T01:34:09.791Z,0
2023-03-31T01:39:13.929Z,0
2023-03-31T01:44:18.063Z,0
2023-03-31T01:49:22.221Z,0
2023-03-31T01:59:30.544Z,0
2023-03-31T02:04:32.832Z,0
2023-03-31T02:09:37.019Z,0
2023-03-31T02:14:39.262Z,0
2023-03-31T02:19:43.419Z,0
2023-03-31T02:24:47.571Z,0
2023-03-31T02:29:51.758Z,0
2023-03-31T02:34:55.912Z,0
2023-03-31T02:40:00.179Z,0
2023-03-31T02:45:04.249Z,0
2023-03-31T02:50:08.400Z,0
2023-03-31T02:55:12.593Z,0
2023-03-31T03:00:16.708Z,0
2023-03-31T03:05:20.845Z,0
2023-03-31T03:10:25.034Z,0
2023-03-31T03:15:29.187Z,0
2023-03-31T03:20:33.368Z,0
2023-03-31T03:25:37.495Z,0
2023-03-31T03:30:41.716Z,0
2023-03-31T03:35:45.893Z,0
2023-03-31T03:40:50.428Z,0
2023-03-31T03:45:54.191Z,0
2023-03-31T03:50:58.340Z,0
2023-03-31T03:56:02.501Z,0
2023-03-31T04:01:04.744Z,0
2023-03-31T04:06:09.176Z,0
2023-03-31T04:11:11.185Z,0
2023-03-31T04:16:15.361Z,0
2023-03-31T04:21:19.532Z,0
2023-03-31T04:26:23.682Z,0
2023-03-31T04:31:27.851Z,0
2023-03-31T04:36:31.954Z,0
2023-03-31T04:41:36.141Z,0
2023-03-31T04:46:40.297Z,0
2023-03-31T04:51:44.460Z,0
2023-03-31T04:56:48.711Z,0
2023-03-31T05:01:52.791Z,5
2023-03-31T05:06:56.979Z,11
2023-03-31T05:12:01.147Z,23
2023-03-31T05:17:05.272Z,25
2023-03-31T05:22:09.461Z,31
2023-03-31T05:27:13.668Z,50
2023-03-31T05:32:17.745Z,50
2023-03-31T05:37:21.906Z,177
2023-03-31T05:42:26.107Z,609
2023-03-31T05:47:30.261Z,814
2023-03-31T05:52:34.646Z,1064
2023-03-31T05:57:36.680Z,1173
2023-03-31T06:02:40.979Z,1105
2023-03-31T06:07:43.101Z,855
2023-03-31T06:12:47.259Z,830
2023-03-31T06:17:51.500Z,949
2023-03-31T06:22:55.594Z,931
2023-03-31T06:27:59.784Z,1053
2023-03-31T06:33:03.963Z,1410
2023-03-31T06:38:08.100Z,987
2023-03-31T06:43:12.262Z,1207
2023-03-31T06:48:16.386Z,1019
2023-03-31T06:53:20.549Z,1145
2023-03-31T06:58:24.740Z,1237
2023-03-31T07:03:29.014Z,1304
2023-03-31T07:08:33.041Z,1219
2023-03-31T07:13:37.311Z,1645
2023-03-31T07:18:41.466Z,1403
2023-03-31T07:23:45.535Z,2227
2023-03-31T07:28:49.692Z,1285
2023-03-31T07:33:53.873Z,1421
2023-03-31T07:38:58.040Z,2068
2023-03-31T07:44:02.173Z,2375
2023-03-31T07:49:06.441Z,3679
2023-03-31T07:54:08.609Z,3235
2023-03-31T07:59:12.792Z,3055
2023-03-31T08:04:15.065Z,2714
2023-03-31T08:09:19.207Z,2783
2023-03-31T08:14:34.054Z,2774
2023-03-31T08:19:27.520Z,3245
2023-03-31T08:24:31.676Z,5296
2023-03-31T08:29:35.842Z,4685
2023-03-31T08:34:40.011Z,4300
2023-03-31T08:39:44.192Z,5130
2023-03-31T08:44:48.317Z,6238
2023-03-31T08:49:52.722Z,7857
2023-03-31T08:54:56.653Z,7738
2023-03-31T09:00:02.923Z,6040
2023-03-31T09:05:04.967Z,8158
2023-03-31T09:10:09.148Z,10497
2023-03-31T09:15:14.795Z,10826
2023-03-31T09:20:17.464Z,10233
2023-03-31T09:25:21.644Z,10141
2023-03-31T09:30:25.827Z,7996
2023-03-31T09:35:29.995Z,9490
2023-03-31T09:40:34.124Z,8062
2023-03-31T09:45:38.325Z,10162
2023-03-31T09:50:40.527Z,9936
2023-03-31T09:55:44.727Z,8715
2023-03-31T10:00:46.974Z,5136
2023-03-31T10:05:51.241Z,5448
2023-03-31T10:10:55.309Z,8319
2023-03-31T10:15:59.495Z,8592
2023-03-31T10:21:03.844Z,8311
2023-03-31T10:26:07.808Z,8400
2023-03-31T10:31:11.980Z,8030
2023-03-31T10:36:16.184Z,8990
2023-03-31T10:41:20.298Z,4178
2023-03-31T10:46:24.483Z,6356
2023-03-31T10:51:28.584Z,10663
2023-03-31T10:56:32.735Z,11680
2023-03-31T11:01:37.065Z,12416
2023-03-31T11:06:41.079Z,13201
2023-03-31T11:11:45.254Z,13367
2023-03-31T11:16:49.377Z,12781
2023-03-31T11:21:53.584Z,12878
2023-03-31T11:26:57.714Z,13832
2023-03-31T11:32:01.911Z,3175
2023-03-31T11:37:06.028Z,2157
2023-03-31T11:42:10.201Z,2644
2023-03-31T11:47:12.572Z,3562
2023-03-31T11:52:16.634Z,4664
2023-03-31T11:57:18.929Z,6708
2023-03-31T12:02:23.047Z,13071
2023-03-31T12:07:27.230Z,14034
2023-03-31T12:12:31.411Z,13087
2023-03-31T12:17:35.576Z,12385
2023-03-31T12:22:39.732Z,12063
2023-03-31T12:27:43.851Z,12344
2023-03-31T12:32:48.045Z,12039
2023-03-31T12:37:52.191Z,12104
2023-03-31T12:42:56.374Z,10225
2023-03-31T12:48:00.592Z,7958
2023-03-31T12:53:04.666Z,10453
2023-03-31T12:58:08.860Z,8635
2023-03-31T13:03:13.026Z,9382
2023-03-31T13:08:17.117Z,8316
2023-03-31T13:13:21.282Z,10277
2023-03-31T13:18:25.512Z,6247
2023-03-31T13:23:29.593Z,14323
2023-03-31T13:28:33.773Z,12193
2023-03-31T13:33:37.970Z,10942
2023-03-31T13:43:46.271Z,5262
2023-03-31T13:48:48.556Z,9805
2023-03-31T13:53:52.728Z,10138
2023-03-31T13:58:56.868Z,11264
2023-03-31T14:03:59.153Z,10500
2023-03-31T14:09:03.303Z,7590
2023-03-31T14:14:07.468Z,8536
2023-03-31T14:19:11.597Z,6694
2023-03-31T14:24:15.791Z,3607
2023-03-31T14:29:19.938Z,7557
2023-03-31T14:34:24.113Z,6610
2023-03-31T14:39:28.297Z,7635
2023-03-31T14:44:32.412Z,6941
2023-03-31T14:49:36.602Z,7200
2023-03-31T14:54:40.709Z,9827
2023-03-31T14:59:44.905Z,7270
2023-03-31T15:04:49.155Z,6127
2023-03-31T15:09:53.199Z,4610
2023-03-31T15:14:57.368Z,2814
2023-03-31T15:25:05.701Z,3799
2023-03-31T15:30:09.848Z,2306
2023-03-31T15:35:21.793Z,1406
2023-03-31T15:40:18.166Z,1320
2023-03-31T15:45:22.349Z,1203
2023-03-31T15:50:26.484Z,1445
2023-03-31T15:55:28.756Z,2320
2023-03-31T16:00:32.937Z,3084
2023-03-31T16:05:43.711Z,3843
2023-03-31T16:10:41.239Z,2921
2023-03-31T16:20:49.591Z,3654
2023-03-31T16:25:51.816Z,3904
2023-03-31T16:30:55.989Z,3530
2023-03-31T16:36:00.150Z,3569
2023-03-31T16:41:04.312Z,3851
2023-03-31T16:46:08.471Z,4036
2023-03-31T16:51:12.645Z,3906
2023-03-31T16:56:16.833Z,2538
2023-03-31T17:06:25.138Z,1441
2023-03-31T17:11:29.296Z,1115
2023-03-31T17:16:44.879Z,1414
2023-03-31T17:21:37.588Z,936
2023-03-31T17:31:45.948Z,765
2023-03-31T17:36:48.228Z,416
2023-03-31T17:41:59.366Z,320
2023-03-31T17:47:10.527Z,385
2023-03-31T17:52:21.710Z,256
2023-03-31T17:57:32.986Z,130
2023-03-31T18:02:44.107Z,79
2023-03-31T18:07:57.235Z,36
2023-03-31T18:12:57.496Z,22
2023-03-31T18:17:59.813Z,13
2023-03-31T18:23:03.912Z,6
2023-03-31T18:28:08.090Z,2
2023-03-31T18:33:12.281Z,0
2023-03-31T18:38:16.404Z,0
2023-03-31T18:43:20.537Z,0
2023-03-31T18:48:24.756Z,0
2023-03-31T18:53:28.875Z,0
2023-03-31T18:58:33.048Z,0
2023-03-31T19:03:37.223Z,0
2023-03-31T19:08:41.347Z,0
2023-03-31T19:13:45.545Z,0
2023-03-31T19:18:49.661Z,0
2023-03-31T19:23:53.871Z,0
2023-03-31T19:28:57.983Z,0
2023-03-31T19:34:02.199Z,0
2023-03-31T19:39:06.320Z,0
2023-03-31T19:44:10.508Z,0
2023-03-31T19:49:14.635Z,0
2023-03-31T19:54:18.811Z,0
2023-03-31T19:59:21.101Z,0
2023-03-31T20:04:23.459Z,0
2023-03-31T20:09:27.512Z,0
2023-03-31T20:14:31.712Z,0
2023-03-31T20:19:33.911Z,0
2023-03-31T20:24:38.124Z,0
2023-03-31T20:29:42.275Z,0
2023-03-31T20:34:46.404Z,0
2023-03-31T20:39:50.613Z,0
2023-03-31T20:44:54.725Z,0
2023-03-31T20:49:58.938Z,0
2023-03-31T20:55:03.069Z,0
2023-03-31T21:00:07.221Z,0
2023-03-31T21:05:11.401Z,0
2023-03-31T21:10:15.566Z,0
2023-03-31T21:15:19.722Z,0
2023-03-31T21:20:23.875Z,0
2023-03-31T21:25:28.029Z,0
2023-03-31T21:30:32.168Z,0
2023-03-31T21:35:36.393Z,0
2023-03-31T21:40:40.524Z,0
2023-03-31T21:45:44.676Z,0
2023-03-31T21:50:48.854Z,0
2023-03-31T21:55:53.004Z,0
2023-03-31T22:00:57.144Z,0
2023-03-31T22:05:59.418Z,0
2023-03-31T22:11:03.636Z,0
2023-03-31T22:16:07.843Z,0
2023-03-31T22:21:15.796Z,0
2023-03-31T22:26:16.145Z,0
2023-03-31T22:31:20.518Z,0
2023-03-31T22:36:24.498Z,0
2023-03-31T22:41:28.615Z,0
2023-03-31T22:46:32.747Z,0
2023-03-31T22:51:36.888Z,0
2023-03-31T22:56:41.074Z,0
2023-03-31T23:01:45.209Z,0
2023-03-31T23:06:49.376Z,0
2023-03-31T23:11:53.535Z,0
2023-03-31T23:16:57.961Z,0
2023-03-31T23:22:01.895Z,0
2023-03-31T23:27:06.028Z,0
2023-03-31T23:32:10.224Z,0
2023-03-31T23:37:14.497Z,0
2023-03-31T23:42:18.733Z,0
2023-03-31T23:47:22.716Z,0
2023-03-31T23:52:24.912Z,0
2023-03-31T23:57:29.218Z,0
